Terminal Aerodrome Forecast
Issued by NWS Louisville, KY

Home | Current Version | Previous Version | Graphics & Text | Print | Product List | Glossary On
Versions: 1 2 3 4 5 6 7 8 9 10 11 12 13 14 15 16 17
000
FTUS43 KLMK 011700
TAFLEX
TAF
KLEX 011739Z 0118/0218 19014G24KT 6SM -RA BR OVC040
     FM012000 17014G21KT 4SM -RA BR OVC018
      TEMPO 0120/0123 2SM -RA BR OVC012
     FM012300 18012KT 4SM -RA BR BKN008 OVC015
     FM020300 24012KT 6SM BR VCSH OVC018
     FM021000 30015G25KT P6SM VCSH OVC018
     FM021600 31010KT P6SM BKN025=

USA.gov is the U.S. government's official web portal to all federal, state and local government web resources and services.